sensor_id;sensor_type;location;lat;lon;timestamp;pressure;altitude;pressure_sealevel;temperature;humidity
9746;BME280;4912;50.836;12.958;2023-04-27T00:01:08;98009.66;;;7.53;57.30
9746;BME280;4912;50.836;12.958;2023-04-27T00:03:40;98018.44;;;7.48;56.66
9746;BME280;4912;50.836;12.958;2023-04-27T00:06:12;98017.03;;;7.44;57.54
9746;BME280;4912;50.836;12.958;2023-04-27T00:08:42;98014.63;;;7.33;58.45
9746;BME280;4912;50.836;12.958;2023-04-27T00:11:13;98008.13;;;7.27;57.60
9746;BME280;4912;50.836;12.958;2023-04-27T00:13:46;98016.28;;;7.18;58.02
9746;BME280;4912;50.836;12.958;2023-04-27T00:16:16;98007.13;;;7.08;58.59
9746;BME280;4912;50.836;12.958;2023-04-27T00:18:47;98011.97;;;7.04;58.67
9746;BME280;4912;50.836;12.958;2023-04-27T00:21:18;98010.09;;;7.01;58.24
9746;BME280;4912;50.836;12.958;2023-04-27T00:23:49;98014.16;;;6.96;58.19
9746;BME280;4912;50.836;12.958;2023-04-27T00:26:19;98000.97;;;6.91;58.50
9746;BME280;4912;50.836;12.958;2023-04-27T00:28:54;98014.59;;;6.82;58.69
9746;BME280;4912;50.836;12.958;2023-04-27T00:31:25;98012.81;;;6.76;58.69
9746;BME280;4912;50.836;12.958;2023-04-27T00:33:55;98012.06;;;6.75;58.50
9746;BME280;4912;50.836;12.958;2023-04-27T00:36:26;98018.53;;;6.69;58.67
9746;BME280;4912;50.836;12.958;2023-04-27T00:38:56;98017.41;;;6.66;59.00
9746;BME280;4912;50.836;12.958;2023-04-27T00:41:27;98021.03;;;6.63;59.27
9746;BME280;4912;50.836;12.958;2023-04-27T00:44:01;98020.38;;;6.59;59.76
9746;BME280;4912;50.836;12.958;2023-04-27T00:46:33;98027.63;;;6.53;59.89
9746;BME280;4912;50.836;12.958;2023-04-27T00:49:04;98019.03;;;6.51;60.47
9746;BME280;4912;50.836;12.958;2023-04-27T00:51:35;98022.13;;;6.53;59.88
9746;BME280;4912;50.836;12.958;2023-04-27T00:54:05;98018.38;;;6.47;60.51
9746;BME280;4912;50.836;12.958;2023-04-27T00:56:37;98025.06;;;6.46;60.33
9746;BME280;4912;50.836;12.958;2023-04-27T00:59:10;98020.97;;;6.38;60.57
9746;BME280;4912;50.836;12.958;2023-04-27T01:01:41;98017.53;;;6.34;61.27
9746;BME280;4912;50.836;12.958;2023-04-27T01:04:11;98024.59;;;6.35;60.88
9746;BME280;4912;50.836;12.958;2023-04-27T01:06:43;98025.91;;;6.30;61.01
9746;BME280;4912;50.836;12.958;2023-04-27T01:09:14;98017.06;;;6.23;61.74
9746;BME280;4912;50.836;12.958;2023-04-27T01:11:48;98025.84;;;6.18;61.79
9746;BME280;4912;50.836;12.958;2023-04-27T01:14:22;98024.72;;;6.15;61.58
9746;BME280;4912;50.836;12.958;2023-04-27T01:16:53;98033.72;;;6.15;61.31
9746;BME280;4912;50.836;12.958;2023-04-27T01:19:24;98037.69;;;6.14;61.71
9746;BME280;4912;50.836;12.958;2023-04-27T01:21:55;98028.53;;;6.05;62.07
9746;BME280;4912;50.836;12.958;2023-04-27T01:24:28;98026.97;;;6.04;61.88
9746;BME280;4912;50.836;12.958;2023-04-27T01:26:58;98038.06;;;6.00;62.23
9746;BME280;4912;50.836;12.958;2023-04-27T01:29:30;98028.81;;;5.94;62.28
9746;BME280;4912;50.836;12.958;2023-04-27T01:32:01;98031.63;;;5.91;62.18
9746;BME280;4912;50.836;12.958;2023-04-27T01:34:32;98038.00;;;5.88;62.21
9746;BME280;4912;50.836;12.958;2023-04-27T01:37:03;98030.56;;;5.85;62.71
9746;BME280;4912;50.836;12.958;2023-04-27T01:39:37;98031.50;;;5.78;63.55
9746;BME280;4912;50.836;12.958;2023-04-27T01:42:08;98034.78;;;5.73;63.88
9746;BME280;4912;50.836;12.958;2023-04-27T01:44:39;98034.88;;;5.69;63.62
9746;BME280;4912;50.836;12.958;2023-04-27T01:47:09;98032.97;;;5.66;63.43
9746;BME280;4912;50.836;12.958;2023-04-27T01:49:40;98033.44;;;5.65;63.05
9746;BME280;4912;50.836;12.958;2023-04-27T01:52:10;98030.75;;;5.61;62.50
9746;BME280;4912;50.836;12.958;2023-04-27T01:54:44;98030.44;;;5.59;62.53
9746;BME280;4912;50.836;12.958;2023-04-27T01:57:14;98034.78;;;5.57;62.50
9746;BME280;4912;50.836;12.958;2023-04-27T01:59:45;98037.28;;;5.51;62.44
9746;BME280;4912;50.836;12.958;2023-04-27T02:02:16;98034.28;;;5.46;62.80
9746;BME280;4912;50.836;12.958;2023-04-27T02:04:46;98042.88;;;5.48;62.77
9746;BME280;4912;50.836;12.958;2023-04-27T02:07:18;98040.97;;;5.45;63.42
9746;BME280;4912;50.836;12.958;2023-04-27T02:09:51;98040.34;;;5.37;63.96
9746;BME280;4912;50.836;12.958;2023-04-27T02:12:22;98040.78;;;5.35;63.39
9746;BME280;4912;50.836;12.958;2023-04-27T02:14:52;98040.78;;;5.35;62.74
9746;BME280;4912;50.836;12.958;2023-04-27T02:17:23;98047.03;;;5.36;62.64
9746;BME280;4912;50.836;12.958;2023-04-27T02:19:55;98042.75;;;5.35;62.52
9746;BME280;4912;50.836;12.958;2023-04-27T02:22:26;98040.44;;;5.33;62.44
9746;BME280;4912;50.836;12.958;2023-04-27T02:24:59;98049.50;;;5.30;62.52
9746;BME280;4912;50.836;12.958;2023-04-27T02:27:30;98040.59;;;5.26;62.59
9746;BME280;4912;50.836;12.958;2023-04-27T02:30:03;98045.66;;;5.28;62.65
9746;BME280;4912;50.836;12.958;2023-04-27T02:32:36;98044.53;;;5.25;62.99
9746;BME280;4912;50.836;12.958;2023-04-27T02:35:08;98050.47;;;5.24;63.68
9746;BME280;4912;50.836;12.958;2023-04-27T02:37:39;98049.84;;;5.16;63.58
9746;BME280;4912;50.836;12.958;2023-04-27T02:40:12;98053.78;;;5.15;63.49
9746;BME280;4912;50.836;12.958;2023-04-27T02:42:43;98048.81;;;5.10;63.67
9746;BME280;4912;50.836;12.958;2023-04-27T02:45:14;98049.16;;;5.12;63.47
9746;BME280;4912;50.836;12.958;2023-04-27T02:47:45;98062.09;;;5.12;63.47
9746;BME280;4912;50.836;12.958;2023-04-27T02:50:17;98056.59;;;5.12;63.02
9746;BME280;4912;50.836;12.958;2023-04-27T02:52:47;98050.78;;;5.10;63.21
9746;BME280;4912;50.836;12.958;2023-04-27T02:55:20;98063.34;;;5.07;63.18
9746;BME280;4912;50.836;12.958;2023-04-27T02:57:51;98058.31;;;5.06;63.19
9746;BME280;4912;50.836;12.958;2023-04-27T03:00:22;98059.56;;;5.01;63.16
9746;BME280;4912;50.836;12.958;2023-04-27T03:02:53;98067.47;;;4.99;63.20
9746;BME280;4912;50.836;12.958;2023-04-27T03:05:25;98064.34;;;4.97;63.23
9746;BME280;4912;50.836;12.958;2023-04-27T03:07:58;98064.84;;;4.92;63.79
9746;BME280;4912;50.836;12.958;2023-04-27T03:10:31;98066.81;;;4.91;63.80
9746;BME280;4912;50.836;12.958;2023-04-27T03:13:02;98067.59;;;4.92;63.97
9746;BME280;4912;50.836;12.958;2023-04-27T03:15:32;98063.03;;;4.85;64.37
9746;BME280;4912;50.836;12.958;2023-04-27T03:18:04;98069.28;;;4.86;64.12
9746;BME280;4912;50.836;12.958;2023-04-27T03:20:35;98071.75;;;4.80;64.57
9746;BME280;4912;50.836;12.958;2023-04-27T03:23:05;98069.09;;;4.77;64.33
9746;BME280;4912;50.836;12.958;2023-04-27T03:25:38;98071.47;;;4.75;63.97
9746;BME280;4912;50.836;12.958;2023-04-27T03:28:09;98075.06;;;4.72;64.36
9746;BME280;4912;50.836;12.958;2023-04-27T03:30:39;98065.03;;;4.65;65.42
9746;BME280;4912;50.836;12.958;2023-04-27T03:33:10;98076.81;;;4.62;65.11
9746;BME280;4912;50.836;12.958;2023-04-27T03:35:41;98080.81;;;4.58;65.21
9746;BME280;4912;50.836;12.958;2023-04-27T03:38:13;98078.09;;;4.58;65.20
9746;BME280;4912;50.836;12.958;2023-04-27T03:40:46;98087.13;;;4.54;65.55
9746;BME280;4912;50.836;12.958;2023-04-27T03:43:17;98080.13;;;4.53;65.08
9746;BME280;4912;50.836;12.958;2023-04-27T03:45:48;98087.88;;;4.59;64.55
9746;BME280;4912;50.836;12.958;2023-04-27T03:48:19;98084.41;;;4.54;64.60
9746;BME280;4912;50.836;12.958;2023-04-27T03:50:52;98087.13;;;4.54;64.44
9746;BME280;4912;50.836;12.958;2023-04-27T03:53:23;98096.09;;;4.59;64.61
9746;BME280;4912;50.836;12.958;2023-04-27T03:55:56;98096.09;;;4.59;64.31
9746;BME280;4912;50.836;12.958;2023-04-27T03:58:27;98104.31;;;4.59;64.21
9746;BME280;4912;50.836;12.958;2023-04-27T04:01:17;98097.75;;;4.52;64.73
9746;BME280;4912;50.836;12.958;2023-04-27T04:03:49;98100.84;;;4.54;64.92
9746;BME280;4912;50.836;12.958;2023-04-27T04:06:19;98100.00;;;4.58;65.06
9746;BME280;4912;50.836;12.958;2023-04-27T04:08:50;98109.00;;;4.58;65.10
9746;BME280;4912;50.836;12.958;2023-04-27T04:11:24;98104.31;;;4.59;64.84
9746;BME280;4912;50.836;12.958;2023-04-27T04:13:57;98119.97;;;4.58;65.20
9746;BME280;4912;50.836;12.958;2023-04-27T04:16:28;98119.88;;;4.62;65.12
9746;BME280;4912;50.836;12.958;2023-04-27T04:18:59;98110.47;;;4.63;65.12
9746;BME280;4912;50.836;12.958;2023-04-27T04:21:30;98115.47;;;4.68;64.95
9746;BME280;4912;50.836;12.958;2023-04-27T04:24:01;98114.63;;;4.71;64.99
9746;BME280;4912;50.836;12.958;2023-04-27T04:26:35;98119.69;;;4.72;65.23
9746;BME280;4912;50.836;12.958;2023-04-27T04:29:06;98128.25;;;4.74;65.13
9746;BME280;4912;50.836;12.958;2023-04-27T04:31:37;98123.47;;;4.78;65.59
9746;BME280;4912;50.836;12.958;2023-04-27T04:34:08;98123.44;;;4.82;66.04
9746;BME280;4912;50.836;12.958;2023-04-27T04:36:40;98123.25;;;4.89;65.45
9746;BME280;4912;50.836;12.958;2023-04-27T04:39:11;98120.06;;;4.94;64.92
9746;BME280;4912;50.836;12.958;2023-04-27T04:41:45;98123.91;;;4.97;64.84
9746;BME280;4912;50.836;12.958;2023-04-27T04:44:16;98121.72;;;5.08;64.02
9746;BME280;4912;50.836;12.958;2023-04-27T04:46:47;98127.84;;;5.15;65.04
9746;BME280;4912;50.836;12.958;2023-04-27T04:49:18;98130.44;;;5.22;64.94
9746;BME280;4912;50.836;12.958;2023-04-27T04:51:49;98129.56;;;5.25;64.88
9746;BME280;4912;50.836;12.958;2023-04-27T04:54:19;98127.44;;;5.33;64.04
9746;BME280;4912;50.836;12.958;2023-04-27T04:56:52;98128.34;;;5.46;63.48
9746;BME280;4912;50.836;12.958;2023-04-27T04:59:25;98123.44;;;5.54;62.34
9746;BME280;4912;50.836;12.958;2023-04-27T05:01:57;98125.63;;;5.62;62.05
9746;BME280;4912;50.836;12.958;2023-04-27T05:04:28;98126.94;;;5.74;61.50
9746;BME280;4912;50.836;12.958;2023-04-27T05:06:59;98132.50;;;5.87;61.00
9746;BME280;4912;50.836;12.958;2023-04-27T05:09:30;98137.41;;;5.95;60.88
9746;BME280;4912;50.836;12.958;2023-04-27T05:12:04;98139.50;;;6.07;60.33
9746;BME280;4912;50.836;12.958;2023-04-27T05:14:35;98134.78;;;6.24;60.74
9746;BME280;4912;50.836;12.958;2023-04-27T05:17:06;98134.41;;;6.38;60.43
9746;BME280;4912;50.836;12.958;2023-04-27T05:19:36;98123.81;;;6.53;61.17
9746;BME280;4912;50.836;12.958;2023-04-27T05:22:07;98130.13;;;6.66;60.62
9746;BME280;4912;50.836;12.958;2023-04-27T05:24:37;98123.38;;;6.83;60.06
9746;BME280;4912;50.836;12.958;2023-04-27T05:27:11;98117.72;;;7.03;59.31
9746;BME280;4912;50.836;12.958;2023-04-27T05:29:43;98126.78;;;7.16;58.78
9746;BME280;4912;50.836;12.958;2023-04-27T05:32:13;98125.25;;;7.28;58.57
9746;BME280;4912;50.836;12.958;2023-04-27T05:34:44;98121.75;;;7.40;58.14
9746;BME280;4912;50.836;12.958;2023-04-27T05:37:15;98124.53;;;7.53;56.68
9746;BME280;4912;50.836;12.958;2023-04-27T05:39:46;98131.69;;;7.63;56.48
9746;BME280;4912;50.836;12.958;2023-04-27T05:42:19;98122.31;;;7.73;55.21
9746;BME280;4912;50.836;12.958;2023-04-27T05:44:49;98132.25;;;7.83;54.88
9746;BME280;4912;50.836;12.958;2023-04-27T05:47:20;98122.88;;;7.93;55.13
9746;BME280;4912;50.836;12.958;2023-04-27T05:49:52;98122.94;;;8.02;54.65
9746;BME280;4912;50.836;12.958;2023-04-27T05:52:22;98123.06;;;8.11;54.35
9746;BME280;4912;50.836;12.958;2023-04-27T05:54:57;98123.91;;;8.21;54.85
9746;BME280;4912;50.836;12.958;2023-04-27T05:57:30;98124.34;;;8.32;54.47
9746;BME280;4912;50.836;12.958;2023-04-27T06:00:04;98125.56;;;8.31;53.68
9746;BME280;4912;50.836;12.958;2023-04-27T06:02:38;98124.25;;;8.36;54.16
9746;BME280;4912;50.836;12.958;2023-04-27T06:05:09;98123.91;;;8.34;54.08
9746;BME280;4912;50.836;12.958;2023-04-27T06:07:40;98131.19;;;8.40;54.59
9746;BME280;4912;50.836;12.958;2023-04-27T06:10:10;98119.72;;;8.42;53.98
9746;BME280;4912;50.836;12.958;2023-04-27T06:12:45;98121.53;;;8.57;53.18
9746;BME280;4912;50.836;12.958;2023-04-27T06:15:15;98118.94;;;8.76;53.35
9746;BME280;4912;50.836;12.958;2023-04-27T06:17:46;98126.56;;;8.72;53.21
9746;BME280;4912;50.836;12.958;2023-04-27T06:20:16;98115.69;;;8.55;52.69
9746;BME280;4912;50.836;12.958;2023-04-27T06:22:47;98123.66;;;8.53;51.85
9746;BME280;4912;50.836;12.958;2023-04-27T06:25:18;98122.75;;;8.56;51.64
9746;BME280;4912;50.836;12.958;2023-04-27T06:27:55;98127.22;;;8.76;52.27
9746;BME280;4912;50.836;12.958;2023-04-27T06:30:26;98136.38;;;8.73;51.39
9746;BME280;4912;50.836;12.958;2023-04-27T06:32:57;98140.22;;;8.75;50.69
9746;BME280;4912;50.836;12.958;2023-04-27T06:35:27;98140.00;;;9.04;51.36
9746;BME280;4912;50.836;12.958;2023-04-27T06:37:58;98134.91;;;9.55;50.32
9746;BME280;4912;50.836;12.958;2023-04-27T06:40:31;98141.06;;;9.90;50.06
9746;BME280;4912;50.836;12.958;2023-04-27T06:43:04;98136.28;;;10.21;48.42
9746;BME280;4912;50.836;12.958;2023-04-27T06:45:34;98130.34;;;10.59;48.36
9746;BME280;4912;50.836;12.958;2023-04-27T06:48:05;98134.50;;;10.64;45.89
9746;BME280;4912;50.836;12.958;2023-04-27T06:50:35;98126.19;;;10.91;46.06
9746;BME280;4912;50.836;12.958;2023-04-27T06:53:06;98135.09;;;11.04;45.70
9746;BME280;4912;50.836;12.958;2023-04-27T06:55:37;98142.03;;;11.09;45.81
9746;BME280;4912;50.836;12.958;2023-04-27T06:58:15;98143.88;;;11.12;45.53
9746;BME280;4912;50.836;12.958;2023-04-27T07:00:45;98143.72;;;11.25;44.74
9746;BME280;4912;50.836;12.958;2023-04-27T07:03:16;98146.31;;;11.19;42.37
9746;BME280;4912;50.836;12.958;2023-04-27T07:05:47;98144.91;;;11.33;42.75
9746;BME280;4912;50.836;12.958;2023-04-27T07:08:17;98151.97;;;11.52;43.07
9746;BME280;4912;50.836;12.958;2023-04-27T07:10:48;98149.31;;;11.76;43.45
9746;BME280;4912;50.836;12.958;2023-04-27T07:13:21;98140.72;;;11.98;42.25
9746;BME280;4912;50.836;12.958;2023-04-27T07:15:55;98146.03;;;12.43;41.98
9746;BME280;4912;50.836;12.958;2023-04-27T07:18:27;98143.44;;;12.63;38.92
9746;BME280;4912;50.836;12.958;2023-04-27T07:20:57;98151.06;;;12.54;38.85
9746;BME280;4912;50.836;12.958;2023-04-27T07:23:28;98140.13;;;12.74;39.40
9746;BME280;4912;50.836;12.958;2023-04-27T07:25:58;98144.53;;;12.81;38.24
9746;BME280;4912;50.836;12.958;2023-04-27T07:28:32;98146.63;;;12.71;37.81
9746;BME280;4912;50.836;12.958;2023-04-27T07:31:03;98151.66;;;12.96;37.73
9746;BME280;4912;50.836;12.958;2023-04-27T07:33:34;98152.78;;;13.13;37.35
9746;BME280;4912;50.836;12.958;2023-04-27T07:36:05;98150.25;;;13.54;39.61
9746;BME280;4912;50.836;12.958;2023-04-27T07:38:35;98139.75;;;13.78;38.11
9746;BME280;4912;50.836;12.958;2023-04-27T07:41:06;98148.94;;;13.99;38.08
9746;BME280;4912;50.836;12.958;2023-04-27T07:43:39;98148.78;;;14.23;37.24
9746;BME280;4912;50.836;12.958;2023-04-27T07:46:10;98151.91;;;14.45;37.38
9746;BME280;4912;50.836;12.958;2023-04-27T07:48:41;98152.28;;;14.53;36.65
9746;BME280;4912;50.836;12.958;2023-04-27T07:51:11;98157.44;;;14.60;34.45
9746;BME280;4912;50.836;12.958;2023-04-27T07:53:43;98163.63;;;14.90;33.87
9746;BME280;4912;50.836;12.958;2023-04-27T07:56:14;98168.22;;;14.93;33.24
9746;BME280;4912;50.836;12.958;2023-04-27T07:58:47;98160.16;;;14.95;33.24
9746;BME280;4912;50.836;12.958;2023-04-27T08:01:17;98157.84;;;15.13;33.17
9746;BME280;4912;50.836;12.958;2023-04-27T08:03:48;98158.03;;;15.10;30.61
9746;BME280;4912;50.836;12.958;2023-04-27T08:06:19;98157.78;;;15.34;31.94
9746;BME280;4912;50.836;12.958;2023-04-27T08:08:50;98155.22;;;15.56;31.61
9746;BME280;4912;50.836;12.958;2023-04-27T08:11:22;98164.09;;;15.54;30.67
9746;BME280;4912;50.836;12.958;2023-04-27T08:13:55;98156.88;;;16.00;31.58
9746;BME280;4912;50.836;12.958;2023-04-27T08:16:25;98149.97;;;16.32;31.19
9746;BME280;4912;50.836;12.958;2023-04-27T08:18:57;98148.31;;;16.99;29.12
9746;BME280;4912;50.836;12.958;2023-04-27T08:21:27;98149.59;;;17.04;30.21
9746;BME280;4912;50.836;12.958;2023-04-27T08:23:58;98158.97;;;16.95;29.41
9746;BME280;4912;50.836;12.958;2023-04-27T08:26:29;98158.72;;;16.99;30.28
9746;BME280;4912;50.836;12.958;2023-04-27T08:29:02;98159.41;;;18.09;28.67
9746;BME280;4912;50.836;12.958;2023-04-27T08:31:52;98154.19;;;19.78;26.62
9746;BME280;4912;50.836;12.958;2023-04-27T08:34:23;98146.69;;;20.70;26.08
9746;BME280;4912;50.836;12.958;2023-04-27T08:36:54;98148.28;;;20.41;25.56
9746;BME280;4912;50.836;12.958;2023-04-27T08:39:25;98150.41;;;20.30;25.98
9746;BME280;4912;50.836;12.958;2023-04-27T08:42:01;98150.59;;;19.42;26.19
9746;BME280;4912;50.836;12.958;2023-04-27T08:44:42;98148.06;;;18.81;25.99
9746;BME280;4912;50.836;12.958;2023-04-27T08:47:14;98156.34;;;17.68;27.12
9746;BME280;4912;50.836;12.958;2023-04-27T08:49:57;98156.31;;;17.56;28.50
9746;BME280;4912;50.836;12.958;2023-04-27T08:52:27;98148.31;;;17.05;28.49
9746;BME280;4912;50.836;12.958;2023-04-27T08:54:58;98144.63;;;18.30;26.04
9746;BME280;4912;50.836;12.958;2023-04-27T08:57:29;98143.00;;;18.74;25.60
9746;BME280;4912;50.836;12.958;2023-04-27T09:00:03;98144.03;;;18.71;25.65
9746;BME280;4912;50.836;12.958;2023-04-27T09:02:45;98145.47;;;19.46;24.90
9746;BME280;4912;50.836;12.958;2023-04-27T09:05:17;98144.41;;;19.03;24.62
9746;BME280;4912;50.836;12.958;2023-04-27T09:07:58;98142.06;;;18.32;24.90
9746;BME280;4912;50.836;12.958;2023-04-27T09:10:42;98150.78;;;18.01;25.27
9746;BME280;4912;50.836;12.958;2023-04-27T09:13:15;98144.03;;;19.70;24.51
9746;BME280;4912;50.836;12.958;2023-04-27T09:15:49;98139.03;;;20.17;23.52
9746;BME280;4912;50.836;12.958;2023-04-27T09:18:22;98136.66;;;19.67;23.41
9746;BME280;4912;50.836;12.958;2023-04-27T09:20:56;98141.63;;;17.95;24.50
9746;BME280;4912;50.836;12.958;2023-04-27T09:23:27;98140.47;;;17.20;26.43
9746;BME280;4912;50.836;12.958;2023-04-27T09:26:00;98138.81;;;18.06;26.20
9746;BME280;4912;50.836;12.958;2023-04-27T09:28:37;98129.53;;;18.67;25.94
9746;BME280;4912;50.836;12.958;2023-04-27T09:31:11;98133.72;;;17.66;25.57
9746;BME280;4912;50.836;12.958;2023-04-27T09:33:43;98128.81;;;17.44;27.22
9746;BME280;4912;50.836;12.958;2023-04-27T09:36:19;98129.56;;;17.22;26.34
9746;BME280;4912;50.836;12.958;2023-04-27T09:38:51;98130.19;;;16.78;27.07
9746;BME280;4912;50.836;12.958;2023-04-27T09:41:22;98125.44;;;16.42;27.30
9746;BME280;4912;50.836;12.958;2023-04-27T09:43:56;98131.66;;;16.20;28.65
9746;BME280;4912;50.836;12.958;2023-04-27T09:46:35;98140.41;;;16.02;28.48
9746;BME280;4912;50.836;12.958;2023-04-27T09:49:06;98125.59;;;15.90;29.12
9746;BME280;4912;50.836;12.958;2023-04-27T09:51:40;98129.84;;;17.41;28.86
9746;BME280;4912;50.836;12.958;2023-04-27T09:54:12;98114.34;;;18.23;28.03
9746;BME280;4912;50.836;12.958;2023-04-27T09:56:51;98118.66;;;17.46;27.78
9746;BME280;4912;50.836;12.958;2023-04-27T09:59:45;98117.97;;;17.90;27.14
9746;BME280;4912;50.836;12.958;2023-04-27T10:02:28;98109.50;;;18.29;27.53
9746;BME280;4912;50.836;12.958;2023-04-27T10:05:37;98115.66;;;18.00;27.23
9746;BME280;4912;50.836;12.958;2023-04-27T10:08:15;98114.34;;;17.45;26.41
9746;BME280;4912;50.836;12.958;2023-04-27T10:10:47;98108.34;;;16.76;27.42
9746;BME280;4912;50.836;12.958;2023-04-27T10:13:22;98115.78;;;16.43;28.14
9746;BME280;4912;50.836;12.958;2023-04-27T10:15:55;98125.34;;;16.25;29.20
9746;BME280;4912;50.836;12.958;2023-04-27T10:18:29;98123.81;;;16.66;28.54
9746;BME280;4912;50.836;12.958;2023-04-27T10:21:09;98123.50;;;17.40;28.22
9746;BME280;4912;50.836;12.958;2023-04-27T10:23:46;98114.59;;;18.25;28.95
9746;BME280;4912;50.836;12.958;2023-04-27T10:26:21;98111.59;;;17.68;26.88
9746;BME280;4912;50.836;12.958;2023-04-27T10:28:59;98118.97;;;17.76;27.73
9746;BME280;4912;50.836;12.958;2023-04-27T10:31:34;98111.31;;;17.54;27.66
9746;BME280;4912;50.836;12.958;2023-04-27T10:34:17;98107.75;;;17.59;27.76
9746;BME280;4912;50.836;12.958;2023-04-27T10:36:48;98106.50;;;18.91;27.76
9746;BME280;4912;50.836;12.958;2023-04-27T10:39:19;98111.41;;;20.21;26.69
9746;BME280;4912;50.836;12.958;2023-04-27T10:42:10;98104.09;;;21.22;25.13
9746;BME280;4912;50.836;12.958;2023-04-27T10:44:41;98108.84;;;21.65;23.48
9746;BME280;4912;50.836;12.958;2023-04-27T10:47:13;98103.00;;;21.44;22.78
9746;BME280;4912;50.836;12.958;2023-04-27T10:49:51;98101.72;;;21.45;24.84
9746;BME280;4912;50.836;12.958;2023-04-27T10:52:22;98105.47;;;21.16;24.49
9746;BME280;4912;50.836;12.958;2023-04-27T10:54:52;98101.59;;;20.09;24.31
9746;BME280;4912;50.836;12.958;2023-04-27T10:57:32;98105.66;;;19.48;25.13
9746;BME280;4912;50.836;12.958;2023-04-27T11:00:06;98102.69;;;18.88;25.91
9746;BME280;4912;50.836;12.958;2023-04-27T11:02:42;98092.91;;;18.42;26.24
9746;BME280;4912;50.836;12.958;2023-04-27T11:05:23;98097.13;;;19.65;25.24
9746;BME280;4912;50.836;12.958;2023-04-27T11:08:06;98093.91;;;20.58;24.79
9746;BME280;4912;50.836;12.958;2023-04-27T11:10:44;98086.59;;;20.00;24.70
9746;BME280;4912;50.836;12.958;2023-04-27T11:13:18;98095.22;;;20.08;25.63
9746;BME280;4912;50.836;12.958;2023-04-27T11:15:50;98088.19;;;21.06;24.75
9746;BME280;4912;50.836;12.958;2023-04-27T11:18:23;98095.88;;;21.43;24.61
9746;BME280;4912;50.836;12.958;2023-04-27T11:21:08;98094.63;;;21.26;23.62
9746;BME280;4912;50.836;12.958;2023-04-27T11:23:40;98095.94;;;20.38;24.82
9746;BME280;4912;50.836;12.958;2023-04-27T11:26:13;98107.31;;;19.27;23.77
9746;BME280;4912;50.836;12.958;2023-04-27T11:28:57;98106.53;;;19.32;24.93
9746;BME280;4912;50.836;12.958;2023-04-27T11:31:39;98104.09;;;21.41;23.15
9746;BME280;4912;50.836;12.958;2023-04-27T11:34:15;98096.13;;;22.75;22.14
9746;BME280;4912;50.836;12.958;2023-04-27T11:37:05;98104.16;;;22.71;21.99
9746;BME280;4912;50.836;12.958;2023-04-27T11:39:45;98111.16;;;23.04;21.71
9746;BME280;4912;50.836;12.958;2023-04-27T11:42:17;98104.00;;;24.33;21.68
9746;BME280;4912;50.836;12.958;2023-04-27T11:44:52;98100.44;;;24.97;22.46
9746;BME280;4912;50.836;12.958;2023-04-27T11:47:27;98098.34;;;24.90;19.51
9746;BME280;4912;50.836;12.958;2023-04-27T11:50:00;98100.72;;;24.21;19.64
9746;BME280;4912;50.836;12.958;2023-04-27T11:52:35;98098.53;;;22.84;20.88
9746;BME280;4912;50.836;12.958;2023-04-27T11:55:09;98098.38;;;24.69;20.94
9746;BME280;4912;50.836;12.958;2023-04-27T11:57:43;98096.91;;;25.78;19.79
9746;BME280;4912;50.836;12.958;2023-04-27T12:00:15;98112.09;;;23.87;19.51
9746;BME280;4912;50.836;12.958;2023-04-27T12:02:49;98117.81;;;22.54;21.63
9746;BME280;4912;50.836;12.958;2023-04-27T12:05:20;98110.22;;;22.49;22.50
9746;BME280;4912;50.836;12.958;2023-04-27T12:07:56;98095.25;;;21.82;23.24
9746;BME280;4912;50.836;12.958;2023-04-27T12:10:27;98112.22;;;21.45;23.33
9746;BME280;4912;50.836;12.958;2023-04-27T12:13:00;98103.91;;;22.16;23.01
9746;BME280;4912;50.836;12.958;2023-04-27T12:15:33;98098.72;;;24.94;21.79
9746;BME280;4912;50.836;12.958;2023-04-27T12:18:07;98089.38;;;26.41;20.33
9746;BME280;4912;50.836;12.958;2023-04-27T12:20:38;98103.00;;;24.51;20.42
9746;BME280;4912;50.836;12.958;2023-04-27T12:23:13;98106.59;;;23.61;20.96
9746;BME280;4912;50.836;12.958;2023-04-27T12:25:46;98099.31;;;23.18;22.14
9746;BME280;4912;50.836;12.958;2023-04-27T12:28:17;98111.66;;;22.55;22.60
9746;BME280;4912;50.836;12.958;2023-04-27T12:30:47;98110.13;;;21.64;23.05
9746;BME280;4912;50.836;12.958;2023-04-27T12:33:18;98104.50;;;21.64;24.08
9746;BME280;4912;50.836;12.958;2023-04-27T12:35:49;98107.34;;;24.24;22.67
9746;BME280;4912;50.836;12.958;2023-04-27T12:38:22;98096.53;;;25.81;21.00
9746;BME280;4912;50.836;12.958;2023-04-27T12:40:56;98088.53;;;27.26;19.81
9746;BME280;4912;50.836;12.958;2023-04-27T12:43:29;98083.97;;;27.63;18.98
9746;BME280;4912;50.836;12.958;2023-04-27T12:46:01;98094.66;;;28.04;18.16
9746;BME280;4912;50.836;12.958;2023-04-27T12:48:33;98093.88;;;28.11;17.52
9746;BME280;4912;50.836;12.958;2023-04-27T12:51:05;98082.97;;;28.25;18.00
9746;BME280;4912;50.836;12.958;2023-04-27T12:53:41;98085.28;;;28.78;18.36
9746;BME280;4912;50.836;12.958;2023-04-27T12:56:12;98082.53;;;29.32;18.62
9746;BME280;4912;50.836;12.958;2023-04-27T12:58:43;98084.66;;;29.58;18.09
9746;BME280;4912;50.836;12.958;2023-04-27T13:01:14;98081.84;;;29.95;18.09
9746;BME280;4912;50.836;12.958;2023-04-27T13:03:46;98078.25;;;29.67;16.31
9746;BME280;4912;50.836;12.958;2023-04-27T13:06:18;98078.09;;;29.65;16.98
9746;BME280;4912;50.836;12.958;2023-04-27T13:08:51;98079.94;;;29.44;16.70
9746;BME280;4912;50.836;12.958;2023-04-27T13:11:23;98083.19;;;29.40;17.23
9746;BME280;4912;50.836;12.958;2023-04-27T13:13:53;98081.66;;;29.56;16.75
9746;BME280;4912;50.836;12.958;2023-04-27T13:16:25;98085.47;;;30.05;16.85
9746;BME280;4912;50.836;12.958;2023-04-27T13:18:55;98081.97;;;30.33;16.72
9746;BME280;4912;50.836;12.958;2023-04-27T13:21:26;98077.44;;;30.30;16.52
9746;BME280;4912;50.836;12.958;2023-04-27T13:23:59;98071.91;;;30.32;16.35
9746;BME280;4912;50.836;12.958;2023-04-27T13:26:33;98072.69;;;29.69;15.67
9746;BME280;4912;50.836;12.958;2023-04-27T13:29:03;98065.94;;;29.92;16.26
9746;BME280;4912;50.836;12.958;2023-04-27T13:31:34;98072.38;;;29.65;15.45
9746;BME280;4912;50.836;12.958;2023-04-27T13:34:05;98071.66;;;29.38;15.75
9746;BME280;4912;50.836;12.958;2023-04-27T13:36:35;98070.16;;;29.20;16.08
9746;BME280;4912;50.836;12.958;2023-04-27T13:39:08;98070.94;;;29.47;16.34
9746;BME280;4912;50.836;12.958;2023-04-27T13:41:39;98063.84;;;29.92;16.01
9746;BME280;4912;50.836;12.958;2023-04-27T13:44:09;98063.97;;;30.60;15.72
9746;BME280;4912;50.836;12.958;2023-04-27T13:46:41;98069.09;;;30.90;16.08